Terminal Aerodrome Forecast
Issued by NWS

Home | Current Version | Previous Version | Text Only | Print | Product List | Glossary On
Versions: 1 2 3 4 5 6 7 8 9 10 11 12 13 14 15 16
000
FTUS43 KMPX 271418 AAA
TAFRNH
TAF AMD
KRNH 271418Z 2714/2812 30015G23KT P6SM SCT020 OVC030
      TEMPO 2714/2716 SCT030
     FM271800 30013G21KT P6SM -SHRA SCT015 OVC025
      TEMPO 2720/2724 4SM -RA BR SCT020 OVC035
     FM280200 33008KT P6SM OVC020=

USA.gov is the U.S. government's official web portal to all federal, state and local government web resources and services.